Hlavní strana
METAR-TAF:

METAR-TAF

Letiště :

Somerset-Pulaski County Airport (J.T. Wilson Field)

Somerset, Kentucky, Spojené státy americké

zeměpisná šířka: 37-03-15N, zeměpisná délka: 084-36-54W, výška: 283 m

Aktuální stav počasí

Zpráva byla vytvořena před 33 minutami, v 03:15 UTC
Severovýchodní vítr 9 kt
Teplota -8°C
Vlhkost vzduchu 57%
Tlak 1028 hPa
Viditelnost: 16.1 km
Zataženo ve výšce 8000 ft

METAR: KSME 210315Z AUTO 04009KT 10SM OVC080 M08/M15 A3036 RMK AO2

Čas: 22:48 (03:48 UTC)

Předpověď počasí

Zpráva byla vytvořena před 4 hodinami a 18 minutami, v 23:30 UTC
Předpověď platná od 21 v 00 UTC do 21 v 24 UTC
Severní vítr 6 kt
Viditelnost: 10 km
Polojasno ve výšce 7000 ft
Oblačno až skoro zataženo ve výšce 10000 ft
Od 21 v 2100 UTC
Východní vítr 5 kt
Viditelnost: 10 km
Skoro jasno ve výšce 25000 ft

TAF: KSME 202330Z 2100/2124 35006KT P6SM SCT070 BKN100 FM212100 10005KT P6SM FEW250

Stav a předpovědi počasí z více než 4 000 letišť (zprávy METAR a TAF).

Červené a žluté tečky na mapě představují dostupné meteorologické stanice.

Když kurzor umístíte na tečku, zobrazí se název stanice.

Pak kliknutím zobrazíte stav a předpověď počasí.

Chcete-li změnit mapu, kliknutím na zelené tlačítko se znaménkem +mapu přiblížíte, kliknutím na zelené tlačítko se znaménkem – mapu oddálíte a kliknutím na zelené šipky přejdete na sousední mapy.


METAR-TAF: